SHMÚ vydal meteorologické výstrahy na Vysoké teploty Zobraziť výstrahy

METAR

Letisková meteorologická správa METAR

Meteorologické informácie z ďalších profesionálnych meteorologických staníc SHMÚ zobrazené v tvare zodpovedajúcom pravidlám kódovania správ METAR sú uvedené v položke „METSYN

Informácie o správe METAR

27.06.2019 - 09:00 UTC

METAR LZIB 270900Z 30011KT CAVOK 31/21 Q1018 NOSIG=
METAR LZKZ 270900Z 19004KT 150V240 CAVOK 29/21 Q1016 NOSIG=
METAR LZPP 270900Z 33004KT 290V040 9999 FEW037 31/22 Q1018=
METAR LZSL 270900Z 02003KT 310V090 9999 FEW043 31/22 Q1017=
METAR LZTT 270900Z 26013KT 9999 FEW046 28/18 Q1018 NOSIG=
METAR LZZI 270900Z 34005KT 250V020 9999 BKN050 BKN063 29/19 Q1018=

27.06.2019 - 08:30 UTC

METAR LZIB 270830Z 30009KT 270V330 CAVOK 31/21 Q1018 NOSIG=
METAR LZKZ 270830Z 17005KT 130V250 CAVOK 28/21 Q1016 NOSIG=
METAR LZPP 270830Z 33004KT 290V020 9999 FEW033 30/22 Q1018=
METAR LZSL 270830Z VRB02KT 9999 FEW039 30/22 Q1018=
METAR LZTT 270830Z 25013KT 9999 FEW046 28/18 Q1019 NOSIG=
METAR LZZI 270830Z VRB02KT 9999 SCT053 29/20 Q1018=

27.06.2019 - 09:00 UTC

METAR LZMC 270900Z 32006KT CAVOK 30/19 Q1019=
METAR LZPW 270900Z 20004KT CAVOK 30/19 Q1016=

skok na menu ↑


skok na začiatok stránky ↑